STWB8K LROP-LTFM
Flight info
| Callsign | STWB8K |
|---|---|
| Flight time | 0h 54m |
| Altitude | 31000 |
| Route | IDARU1K/08L IDARU DCT NONQE DCT MAXOV DCT MATEL L620 RIXEN |
| Aircraft | A20N/M-SDE2E3FGHIRWXY/LB1 |
Departure
| Time | 2026-05-06 18:09 |
|---|---|
| Airport | Bucharest Henri Coandă International Airport (LROP) |
Arrival
| Time | 2026-05-06 19:04 |
|---|---|
| Airport | İstanbul Airport (LTFM) |
| Time | Latitude | Longitude | Altitude | Speed | Heading |
|---|---|---|---|---|---|
| 2026-05-06 17:31 | 44.57027 | 26.08131 | 322 ft | 0 kts | 353° |
| 2026-05-06 17:56 | 44.57023 | 26.08132 | 322 ft | 2 kts | 353° |
| 2026-05-06 17:56 | 44.57006 | 26.08135 | 320 ft | 2 kts | 353° |
| 2026-05-06 17:56 | 44.56988 | 26.08137 | 321 ft | 2 kts | 353° |
| 2026-05-06 17:57 | 44.56971 | 26.08140 | 321 ft | 3 kts | 7° |
| 2026-05-06 17:57 | 44.56954 | 26.08133 | 320 ft | 3 kts | 44° |
| 2026-05-06 17:57 | 44.56943 | 26.08114 | 320 ft | 3 kts | 61° |
| 2026-05-06 17:57 | 44.56938 | 26.08096 | 321 ft | 0 kts | 90° |
| 2026-05-06 17:58 | 44.56938 | 26.08097 | 320 ft | 0 kts | 89° |
| 2026-05-06 18:01 | 44.56938 | 26.08099 | 322 ft | 1 kts | 89° |
| 2026-05-06 18:02 | 44.56938 | 26.08124 | 322 ft | 4 kts | 89° |
| 2026-05-06 18:02 | 44.56939 | 26.08154 | 322 ft | 2 kts | 86° |
| 2026-05-06 18:02 | 44.56941 | 26.08191 | 322 ft | 5 kts | 86° |
| 2026-05-06 18:02 | 44.56945 | 26.08260 | 322 ft | 9 kts | 86° |
| 2026-05-06 18:03 | 44.56944 | 26.08359 | 322 ft | 10 kts | 107° |
| 2026-05-06 18:03 | 44.56908 | 26.08418 | 321 ft | 4 kts | 138° |
| 2026-05-06 18:03 | 44.56891 | 26.08440 | 321 ft | 5 kts | 135° |
| 2026-05-06 18:03 | 44.56893 | 26.08475 | 321 ft | 7 kts | 82° |
| 2026-05-06 18:04 | 44.56928 | 26.08533 | 321 ft | 9 kts | 11° |
| 2026-05-06 18:04 | 44.56997 | 26.08536 | 321 ft | 11 kts | 356° |
| 2026-05-06 18:04 | 44.57083 | 26.08527 | 322 ft | 14 kts | 356° |
| 2026-05-06 18:04 | 44.57186 | 26.08507 | 322 ft | 16 kts | 349° |
| 2026-05-06 18:05 | 44.57306 | 26.08492 | 322 ft | 19 kts | 354° |
| 2026-05-06 18:05 | 44.57445 | 26.08470 | 322 ft | 21 kts | 354° |
| 2026-05-06 18:05 | 44.57506 | 26.08461 | 322 ft | 0 kts | 356° |
| 2026-05-06 18:06 | 44.57509 | 26.08461 | 322 ft | 1 kts | 356° |
| 2026-05-06 18:07 | 44.57526 | 26.08460 | 321 ft | 4 kts | 356° |
| 2026-05-06 18:07 | 44.57565 | 26.08456 | 321 ft | 10 kts | 356° |
| 2026-05-06 18:07 | 44.57652 | 26.08468 | 323 ft | 12 kts | 47° |
| 2026-05-06 18:07 | 44.57669 | 26.08528 | 323 ft | 1 kts | 84° |
| 2026-05-06 18:08 | 44.57669 | 26.08537 | 324 ft | 0 kts | 84° |
| 2026-05-06 18:08 | 44.57680 | 26.08692 | 323 ft | 50 kts | 85° |
| 2026-05-06 18:08 | 44.57744 | 26.09502 | 319 ft | 112 kts | 87° |
| 2026-05-06 18:08 | 44.57829 | 26.10787 | 403 ft | 140 kts | 84° |
| 2026-05-06 18:09 | 44.57911 | 26.12183 | 739 ft | 156 kts | 85° |
| 2026-05-06 18:09 | 44.58029 | 26.13708 | 1408 ft | 157 kts | 87° |
| 2026-05-06 18:09 | 44.58151 | 26.15247 | 2017 ft | 164 kts | 87° |
| 2026-05-06 18:09 | 44.58280 | 26.16909 | 2487 ft | 179 kts | 87° |
| 2026-05-06 18:10 | 44.58419 | 26.18728 | 2931 ft | 196 kts | 86° |
| 2026-05-06 18:10 | 44.58571 | 26.20712 | 3370 ft | 215 kts | 85° |
| 2026-05-06 18:10 | 44.58737 | 26.22890 | 3918 ft | 233 kts | 84° |
| 2026-05-06 18:10 | 44.58916 | 26.25239 | 4555 ft | 251 kts | 83° |
| 2026-05-06 18:11 | 44.59108 | 26.27758 | 5236 ft | 267 kts | 83° |
| 2026-05-06 18:11 | 44.59306 | 26.30385 | 6142 ft | 273 kts | 83° |
| 2026-05-06 18:11 | 44.59505 | 26.33053 | 7082 ft | 277 kts | 83° |
| 2026-05-06 18:11 | 44.59689 | 26.35755 | 8007 ft | 281 kts | 87° |
| 2026-05-06 18:12 | 44.59364 | 26.38470 | 8935 ft | 287 kts | 111° |
| 2026-05-06 18:12 | 44.58303 | 26.40865 | 9827 ft | 294 kts | 125° |
| 2026-05-06 18:12 | 44.57052 | 26.43194 | 10466 ft | 306 kts | 125° |
| 2026-05-06 18:12 | 44.55731 | 26.45642 | 10925 ft | 323 kts | 125° |
| 2026-05-06 18:13 | 44.54337 | 26.48222 | 11344 ft | 340 kts | 126° |
| 2026-05-06 18:13 | 44.52875 | 26.50924 | 11804 ft | 354 kts | 126° |
| 2026-05-06 18:13 | 44.51373 | 26.53698 | 12513 ft | 359 kts | 126° |
| 2026-05-06 18:13 | 44.49857 | 26.56504 | 13294 ft | 363 kts | 126° |
| 2026-05-06 18:14 | 44.48330 | 26.59335 | 14026 ft | 366 kts | 126° |
| 2026-05-06 18:14 | 44.46786 | 26.62197 | 14694 ft | 370 kts | 126° |
| 2026-05-06 18:14 | 44.45227 | 26.65084 | 15342 ft | 374 kts | 126° |
| 2026-05-06 18:14 | 44.43649 | 26.67997 | 15987 ft | 377 kts | 126° |
| 2026-05-06 18:15 | 44.42051 | 26.70941 | 16629 ft | 381 kts | 126° |
| 2026-05-06 18:15 | 44.40462 | 26.73872 | 17259 ft | 385 kts | 126° |
| 2026-05-06 18:15 | 44.38835 | 26.76873 | 17907 ft | 389 kts | 126° |
| 2026-05-06 18:15 | 44.37192 | 26.79898 | 18534 ft | 393 kts | 126° |
| 2026-05-06 18:16 | 44.35529 | 26.82955 | 19109 ft | 397 kts | 125° |
| 2026-05-06 18:16 | 44.33847 | 26.86050 | 19699 ft | 402 kts | 125° |
| 2026-05-06 18:16 | 44.32145 | 26.89176 | 20288 ft | 406 kts | 125° |
| 2026-05-06 18:16 | 44.30422 | 26.92329 | 20866 ft | 410 kts | 125° |
| 2026-05-06 18:17 | 44.28679 | 26.95512 | 21422 ft | 415 kts | 125° |
| 2026-05-06 18:17 | 44.26917 | 26.98722 | 21968 ft | 419 kts | 125° |
| 2026-05-06 18:17 | 44.25140 | 27.01969 | 22479 ft | 423 kts | 125° |
| 2026-05-06 18:17 | 44.23347 | 27.05253 | 22995 ft | 427 kts | 125° |
| 2026-05-06 18:18 | 44.21556 | 27.08522 | 23500 ft | 431 kts | 125° |
| 2026-05-06 18:18 | 44.19725 | 27.11852 | 23940 ft | 435 kts | 125° |
| 2026-05-06 18:18 | 44.17872 | 27.15211 | 24359 ft | 438 kts | 125° |
| 2026-05-06 18:18 | 44.16011 | 27.18585 | 24785 ft | 441 kts | 124° |
| 2026-05-06 18:19 | 44.14141 | 27.21983 | 25191 ft | 444 kts | 124° |
| 2026-05-06 18:19 | 44.12259 | 27.25410 | 25595 ft | 447 kts | 124° |
| 2026-05-06 18:19 | 44.10358 | 27.28853 | 25992 ft | 450 kts | 125° |
| 2026-05-06 18:19 | 44.08440 | 27.32312 | 26383 ft | 453 kts | 125° |
| 2026-05-06 18:20 | 44.06512 | 27.35788 | 26767 ft | 456 kts | 125° |
| 2026-05-06 18:20 | 44.04572 | 27.39286 | 27153 ft | 458 kts | 125° |
| 2026-05-06 18:20 | 44.02619 | 27.42804 | 27543 ft | 461 kts | 125° |
| 2026-05-06 18:20 | 44.00652 | 27.46343 | 27926 ft | 464 kts | 125° |
| 2026-05-06 18:21 | 43.98674 | 27.49896 | 28307 ft | 467 kts | 125° |
| 2026-05-06 18:21 | 43.96586 | 27.53367 | 28682 ft | 471 kts | 131° |
| 2026-05-06 18:21 | 43.94133 | 27.56416 | 29051 ft | 477 kts | 141° |
| 2026-05-06 18:21 | 43.91348 | 27.58945 | 29448 ft | 480 kts | 148° |
| 2026-05-06 18:22 | 43.88465 | 27.61297 | 29871 ft | 481 kts | 148° |
| 2026-05-06 18:22 | 43.85572 | 27.63665 | 30276 ft | 482 kts | 148° |
| 2026-05-06 18:22 | 43.83657 | 27.65236 | 30515 ft | 483 kts | 148° |
| 2026-05-06 18:22 | 43.79956 | 27.68279 | 30952 ft | 485 kts | 148° |
| 2026-05-06 18:23 | 43.77042 | 27.70678 | 31058 ft | 485 kts | 148° |
| 2026-05-06 18:23 | 43.74196 | 27.73018 | 31082 ft | 481 kts | 148° |
| 2026-05-06 18:23 | 43.68447 | 27.77723 | 31083 ft | 480 kts | 148° |
| 2026-05-06 18:24 | 43.62750 | 27.82553 | 31082 ft | 479 kts | 141° |
| 2026-05-06 18:24 | 43.58036 | 27.88921 | 31082 ft | 473 kts | 124° |
| 2026-05-06 18:25 | 43.53986 | 27.96079 | 31092 ft | 473 kts | 125° |
| 2026-05-06 18:25 | 43.49918 | 28.03184 | 31083 ft | 472 kts | 125° |
| 2026-05-06 18:26 | 43.45847 | 28.10288 | 31085 ft | 472 kts | 125° |
| 2026-05-06 18:26 | 43.41775 | 28.17379 | 31097 ft | 472 kts | 125° |
| 2026-05-06 18:27 | 43.37738 | 28.24416 | 31100 ft | 471 kts | 125° |
| 2026-05-06 18:27 | 43.33678 | 28.31483 | 31115 ft | 471 kts | 126° |
| 2026-05-06 18:28 | 43.29601 | 28.38533 | 31123 ft | 471 kts | 126° |
| 2026-05-06 18:28 | 43.25527 | 28.45566 | 31124 ft | 470 kts | 126° |
| 2026-05-06 18:29 | 43.21453 | 28.52584 | 31124 ft | 470 kts | 126° |
| 2026-05-06 18:29 | 43.17379 | 28.59579 | 31124 ft | 469 kts | 126° |
| 2026-05-06 18:30 | 43.13307 | 28.66554 | 31120 ft | 468 kts | 126° |
| 2026-05-06 18:30 | 43.09775 | 28.72176 | 31116 ft | 470 kts | 135° |
| 2026-05-06 18:31 | 43.07194 | 28.74935 | 31109 ft | 473 kts | 146° |
| 2026-05-06 18:31 | 43.04279 | 28.77018 | 31106 ft | 474 kts | 157° |
| 2026-05-06 18:31 | 43.00062 | 28.78629 | 31101 ft | 475 kts | 172° |
| 2026-05-06 18:31 | 42.97842 | 28.78923 | 31101 ft | 475 kts | 179° |
| 2026-05-06 18:32 | 42.91233 | 28.78778 | 31102 ft | 475 kts | 182° |
| 2026-05-06 18:32 | 42.84567 | 28.78612 | 30897 ft | 485 kts | 182° |
| 2026-05-06 18:33 | 42.81184 | 28.78522 | 30645 ft | 486 kts | 181° |
| 2026-05-06 18:33 | 42.77800 | 28.78434 | 30406 ft | 487 kts | 181° |
| 2026-05-06 18:33 | 42.74408 | 28.78349 | 30160 ft | 487 kts | 181° |
| 2026-05-06 18:33 | 42.71029 | 28.78263 | 29874 ft | 485 kts | 181° |
| 2026-05-06 18:34 | 42.67655 | 28.78174 | 29592 ft | 483 kts | 181° |
| 2026-05-06 18:34 | 42.64304 | 28.78086 | 29306 ft | 481 kts | 181° |
| 2026-05-06 18:34 | 42.61009 | 28.78001 | 29031 ft | 479 kts | 181° |
| 2026-05-06 18:34 | 42.57693 | 28.77918 | 28756 ft | 470 kts | 181° |
| 2026-05-06 18:35 | 42.54503 | 28.77837 | 28502 ft | 452 kts | 181° |
| 2026-05-06 18:35 | 42.51351 | 28.77748 | 28225 ft | 452 kts | 181° |
| 2026-05-06 18:35 | 42.48218 | 28.77657 | 27956 ft | 450 kts | 181° |
| 2026-05-06 18:35 | 42.45094 | 28.77569 | 27697 ft | 448 kts | 181° |
| 2026-05-06 18:36 | 42.41980 | 28.77488 | 27434 ft | 446 kts | 181° |
| 2026-05-06 18:36 | 42.38880 | 28.77412 | 27175 ft | 444 kts | 181° |
| 2026-05-06 18:36 | 42.35798 | 28.77337 | 26922 ft | 442 kts | 181° |
| 2026-05-06 18:36 | 42.32728 | 28.77259 | 26666 ft | 440 kts | 181° |
| 2026-05-06 18:37 | 42.29672 | 28.77182 | 26412 ft | 438 kts | 181° |
| 2026-05-06 18:37 | 42.26667 | 28.77106 | 26158 ft | 436 kts | 181° |
| 2026-05-06 18:37 | 42.23640 | 28.77025 | 25909 ft | 435 kts | 181° |
| 2026-05-06 18:37 | 42.20618 | 28.76940 | 25309 ft | 434 kts | 181° |
| 2026-05-06 18:38 | 42.17594 | 28.76854 | 24683 ft | 433 kts | 181° |
| 2026-05-06 18:38 | 42.14608 | 28.76772 | 24358 ft | 424 kts | 181° |
| 2026-05-06 18:38 | 42.11672 | 28.76694 | 23964 ft | 419 kts | 181° |
| 2026-05-06 18:38 | 42.08771 | 28.76620 | 23526 ft | 416 kts | 181° |
| 2026-05-06 18:39 | 42.05881 | 28.76597 | 23141 ft | 412 kts | 179° |
| 2026-05-06 18:39 | 42.03007 | 28.76677 | 23085 ft | 414 kts | 178° |
| 2026-05-06 18:39 | 42.00153 | 28.76818 | 23110 ft | 415 kts | 178° |
| 2026-05-06 18:40 | 41.94330 | 28.77138 | 21946 ft | 421 kts | 178° |
| 2026-05-06 18:40 | 41.91448 | 28.77279 | 21798 ft | 408 kts | 178° |
| 2026-05-06 18:40 | 41.88664 | 28.77401 | 21661 ft | 391 kts | 178° |
| 2026-05-06 18:40 | 41.86027 | 28.77507 | 21360 ft | 371 kts | 179° |
| 2026-05-06 18:41 | 41.83475 | 28.77602 | 20714 ft | 363 kts | 179° |
| 2026-05-06 18:41 | 41.80970 | 28.77657 | 20139 ft | 355 kts | 184° |
| 2026-05-06 18:41 | 41.78519 | 28.77110 | 20017 ft | 360 kts | 199° |
| 2026-05-06 18:41 | 41.76229 | 28.75808 | 19848 ft | 356 kts | 213° |
| 2026-05-06 18:42 | 41.74263 | 28.73850 | 19583 ft | 350 kts | 228° |
| 2026-05-06 18:42 | 41.72713 | 28.71373 | 19337 ft | 345 kts | 239° |
| 2026-05-06 18:42 | 41.71314 | 28.68769 | 19087 ft | 344 kts | 238° |
| 2026-05-06 18:42 | 41.69926 | 28.66218 | 18844 ft | 343 kts | 238° |
| 2026-05-06 18:43 | 41.68516 | 28.63641 | 18606 ft | 342 kts | 238° |
| 2026-05-06 18:43 | 41.67113 | 28.61082 | 18355 ft | 341 kts | 238° |
| 2026-05-06 18:43 | 41.65713 | 28.58527 | 18099 ft | 340 kts | 238° |
| 2026-05-06 18:43 | 41.64229 | 28.55980 | 17860 ft | 364 kts | 229° |
| 2026-05-06 18:44 | 41.62159 | 28.53807 | 17611 ft | 385 kts | 217° |
| 2026-05-06 18:44 | 41.59974 | 28.51851 | 17397 ft | 367 kts | 216° |
| 2026-05-06 18:44 | 41.57905 | 28.50034 | 17105 ft | 347 kts | 216° |
| 2026-05-06 18:44 | 41.55917 | 28.48295 | 16515 ft | 339 kts | 216° |
| 2026-05-06 18:45 | 41.53940 | 28.46564 | 16100 ft | 337 kts | 216° |
| 2026-05-06 18:45 | 41.51985 | 28.44853 | 15753 ft | 334 kts | 216° |
| 2026-05-06 18:45 | 41.50055 | 28.43147 | 15393 ft | 331 kts | 219° |
| 2026-05-06 18:45 | 41.48310 | 28.41191 | 15018 ft | 326 kts | 225° |
| 2026-05-06 18:46 | 41.46668 | 28.39174 | 14655 ft | 324 kts | 226° |
| 2026-05-06 18:46 | 41.45017 | 28.37127 | 14297 ft | 322 kts | 226° |
| 2026-05-06 18:46 | 41.43379 | 28.35093 | 13937 ft | 321 kts | 225° |
| 2026-05-06 18:46 | 41.41521 | 28.33453 | 13559 ft | 323 kts | 204° |
| 2026-05-06 18:47 | 41.39342 | 28.32799 | 13161 ft | 323 kts | 181° |
| 2026-05-06 18:47 | 41.37111 | 28.33032 | 12628 ft | 320 kts | 174° |
| 2026-05-06 18:47 | 41.34901 | 28.33358 | 11923 ft | 319 kts | 174° |
| 2026-05-06 18:47 | 41.32700 | 28.33679 | 11269 ft | 317 kts | 174° |
| 2026-05-06 18:48 | 41.30546 | 28.33989 | 10652 ft | 313 kts | 174° |
| 2026-05-06 18:48 | 41.28362 | 28.34302 | 10025 ft | 311 kts | 174° |
| 2026-05-06 18:48 | 41.26223 | 28.34604 | 9363 ft | 308 kts | 174° |
| 2026-05-06 18:48 | 41.24130 | 28.34899 | 8729 ft | 305 kts | 174° |
| 2026-05-06 18:49 | 41.22035 | 28.35197 | 8108 ft | 301 kts | 175° |
| 2026-05-06 18:49 | 41.19956 | 28.35494 | 7498 ft | 298 kts | 175° |
| 2026-05-06 18:49 | 41.17903 | 28.35787 | 6918 ft | 295 kts | 175° |
| 2026-05-06 18:49 | 41.15925 | 28.36071 | 6754 ft | 275 kts | 175° |
| 2026-05-06 18:50 | 41.14073 | 28.36337 | 6491 ft | 262 kts | 175° |
| 2026-05-06 18:50 | 41.12268 | 28.36592 | 5989 ft | 259 kts | 176° |
| 2026-05-06 18:50 | 41.10495 | 28.36840 | 5506 ft | 254 kts | 176° |
| 2026-05-06 18:50 | 41.08750 | 28.37086 | 5041 ft | 250 kts | 176° |
| 2026-05-06 18:51 | 41.07035 | 28.37329 | 4560 ft | 246 kts | 176° |
| 2026-05-06 18:51 | 41.05346 | 28.37568 | 4064 ft | 242 kts | 176° |
| 2026-05-06 18:51 | 41.03703 | 28.37798 | 3579 ft | 238 kts | 175° |
| 2026-05-06 18:51 | 41.02066 | 28.38026 | 3116 ft | 233 kts | 175° |
| 2026-05-06 18:52 | 41.00454 | 28.38265 | 2996 ft | 233 kts | 171° |
| 2026-05-06 18:52 | 40.98962 | 28.39084 | 3007 ft | 232 kts | 142° |
| 2026-05-06 18:52 | 40.97958 | 28.40637 | 3005 ft | 215 kts | 116° |
| 2026-05-06 18:52 | 40.97567 | 28.42480 | 3008 ft | 210 kts | 91° |
| 2026-05-06 18:53 | 40.97568 | 28.44417 | 3006 ft | 210 kts | 89° |
| 2026-05-06 18:53 | 40.97569 | 28.46350 | 3006 ft | 210 kts | 89° |
| 2026-05-06 18:53 | 40.97564 | 28.48290 | 3010 ft | 216 kts | 89° |
| 2026-05-06 18:53 | 40.97411 | 28.50292 | 3007 ft | 220 kts | 103° |
| 2026-05-06 18:54 | 40.97077 | 28.52270 | 3008 ft | 220 kts | 102° |
| 2026-05-06 18:54 | 40.96754 | 28.54253 | 3007 ft | 221 kts | 102° |
| 2026-05-06 18:54 | 40.96435 | 28.56239 | 3008 ft | 220 kts | 102° |
| 2026-05-06 18:54 | 40.96130 | 28.58160 | 3006 ft | 208 kts | 101° |
| 2026-05-06 18:55 | 40.95927 | 28.60062 | 3013 ft | 209 kts | 89° |
| 2026-05-06 18:55 | 40.95966 | 28.61986 | 3010 ft | 209 kts | 88° |
| 2026-05-06 18:55 | 40.95993 | 28.63912 | 3007 ft | 209 kts | 88° |
| 2026-05-06 18:55 | 40.96037 | 28.65838 | 3009 ft | 209 kts | 81° |
| 2026-05-06 18:56 | 40.96477 | 28.67648 | 3011 ft | 206 kts | 58° |
| 2026-05-06 18:56 | 40.97377 | 28.69104 | 3010 ft | 204 kts | 37° |
| 2026-05-06 18:56 | 40.98582 | 28.70085 | 3008 ft | 204 kts | 26° |
| 2026-05-06 18:56 | 40.99822 | 28.70939 | 3007 ft | 202 kts | 19° |
| 2026-05-06 18:57 | 41.01193 | 28.71242 | 3012 ft | 201 kts | 356° |
| 2026-05-06 18:57 | 41.02588 | 28.71207 | 3006 ft | 199 kts | 358° |
| 2026-05-06 18:57 | 41.03921 | 28.71185 | 3007 ft | 186 kts | 357° |
| 2026-05-06 18:57 | 41.05218 | 28.71160 | 3010 ft | 187 kts | 358° |
| 2026-05-06 18:58 | 41.06485 | 28.71136 | 3049 ft | 174 kts | 358° |
| 2026-05-06 18:58 | 41.07650 | 28.71113 | 3047 ft | 162 kts | 358° |
| 2026-05-06 18:58 | 41.08741 | 28.71092 | 3021 ft | 150 kts | 357° |
| 2026-05-06 18:58 | 41.09741 | 28.71072 | 3031 ft | 142 kts | 357° |
| 2026-05-06 18:59 | 41.10712 | 28.71053 | 3054 ft | 136 kts | 357° |
| 2026-05-06 18:59 | 41.11654 | 28.71034 | 3045 ft | 135 kts | 357° |
| 2026-05-06 18:59 | 41.12596 | 28.71016 | 2996 ft | 135 kts | 357° |
| 2026-05-06 18:59 | 41.13536 | 28.70997 | 2881 ft | 135 kts | 357° |
| 2026-05-06 19:00 | 41.14475 | 28.70979 | 2727 ft | 135 kts | 357° |
| 2026-05-06 19:00 | 41.15406 | 28.70960 | 2559 ft | 134 kts | 357° |
| 2026-05-06 19:00 | 41.16343 | 28.70941 | 2384 ft | 134 kts | 358° |
| 2026-05-06 19:00 | 41.16963 | 28.70929 | 2264 ft | 134 kts | 358° |
| 2026-05-06 19:01 | 41.18210 | 28.70905 | 2033 ft | 134 kts | 358° |
| 2026-05-06 19:01 | 41.19140 | 28.70887 | 1852 ft | 133 kts | 358° |
| 2026-05-06 19:01 | 41.20053 | 28.70868 | 1666 ft | 133 kts | 358° |
| 2026-05-06 19:01 | 41.20973 | 28.70850 | 1483 ft | 132 kts | 359° |
| 2026-05-06 19:02 | 41.21889 | 28.70833 | 1313 ft | 131 kts | 359° |
| 2026-05-06 19:02 | 41.22803 | 28.70813 | 1125 ft | 131 kts | 0° |
| 2026-05-06 19:02 | 41.23712 | 28.70795 | 940 ft | 130 kts | 1° |
| 2026-05-06 19:02 | 41.24618 | 28.70776 | 745 ft | 129 kts | 2° |
| 2026-05-06 19:03 | 41.25519 | 28.70757 | 584 ft | 129 kts | 2° |
| 2026-05-06 19:03 | 41.26415 | 28.70736 | 400 ft | 129 kts | 2° |
| 2026-05-06 19:03 | 41.27283 | 28.70725 | 333 ft | 115 kts | 1° |
| 2026-05-06 19:03 | 41.27961 | 28.70712 | 332 ft | 74 kts | 355° |
| 2026-05-06 19:04 | 41.28315 | 28.70694 | 333 ft | 41 kts | 4° |
| 2026-05-06 19:04 | 41.28588 | 28.70760 | 333 ft | 38 kts | 28° |
| 2026-05-06 19:04 | 41.28705 | 28.70848 | 333 ft | 0 kts | 27° |
| 2026-05-06 19:07 | 41.28725 | 28.70862 | 330 ft | 9 kts | 27° |
| 2026-05-06 19:08 | 41.28794 | 28.70909 | 334 ft | 13 kts | 27° |
| 2026-05-06 19:08 | 41.28877 | 28.70965 | 333 ft | 10 kts | 29° |
| 2026-05-06 19:08 | 41.28945 | 28.71016 | 334 ft | 11 kts | 30° |
| 2026-05-06 19:08 | 41.28984 | 28.71046 | 333 ft | 1 kts | 30° |
| 2026-05-06 19:09 | 41.28996 | 28.71055 | 334 ft | 1 kts | 30° |
| 2026-05-06 19:09 | 41.29005 | 28.71062 | 334 ft | 1 kts | 30° |
| 2026-05-06 19:09 | 41.29012 | 28.71067 | 334 ft | 1 kts | 30° |
| 2026-05-06 19:09 | 41.29019 | 28.71073 | 331 ft | 1 kts | 32° |
| 2026-05-06 19:10 | 41.29023 | 28.71106 | 334 ft | 9 kts | 91° |
| 2026-05-06 19:10 | 41.28975 | 28.71159 | 334 ft | 11 kts | 172° |
| 2026-05-06 19:10 | 41.28887 | 28.71165 | 334 ft | 14 kts | 178° |
| 2026-05-06 19:10 | 41.28784 | 28.71165 | 330 ft | 15 kts | 178° |
| 2026-05-06 19:11 | 41.28713 | 28.71199 | 333 ft | 6 kts | 192° |
| 2026-05-06 19:11 | 41.28641 | 28.71176 | 331 ft | 14 kts | 193° |
| 2026-05-06 19:11 | 41.28541 | 28.71170 | 331 ft | 15 kts | 179° |
| 2026-05-06 19:11 | 41.28429 | 28.71172 | 334 ft | 17 kts | 179° |
| 2026-05-06 19:12 | 41.28354 | 28.71173 | 332 ft | 2 kts | 180° |
| 2026-05-06 19:12 | 41.28335 | 28.71173 | 333 ft | 3 kts | 180° |
| 2026-05-06 19:12 | 41.28306 | 28.71173 | 333 ft | 5 kts | 180° |
| 2026-05-06 19:12 | 41.28269 | 28.71172 | 332 ft | 6 kts | 180° |
| 2026-05-06 19:13 | 41.28221 | 28.71172 | 333 ft | 8 kts | 180° |
| 2026-05-06 19:13 | 41.28164 | 28.71171 | 334 ft | 9 kts | 181° |
| 2026-05-06 19:13 | 41.28094 | 28.71175 | 332 ft | 12 kts | 178° |
| 2026-05-06 19:13 | 41.27992 | 28.71179 | 331 ft | 16 kts | 179° |
| 2026-05-06 19:14 | 41.27871 | 28.71181 | 330 ft | 18 kts | 180° |
| 2026-05-06 19:14 | 41.27739 | 28.71179 | 330 ft | 19 kts | 181° |
| 2026-05-06 19:14 | 41.27598 | 28.71187 | 333 ft | 21 kts | 176° |
| 2026-05-06 19:14 | 41.27445 | 28.71199 | 334 ft | 23 kts | 178° |
| 2026-05-06 19:15 | 41.27278 | 28.71205 | 334 ft | 25 kts | 178° |
| 2026-05-06 19:15 | 41.27154 | 28.71207 | 334 ft | 15 kts | 182° |
| 2026-05-06 19:15 | 41.27046 | 28.71201 | 330 ft | 16 kts | 183° |
| 2026-05-06 19:15 | 41.26927 | 28.71200 | 333 ft | 16 kts | 179° |
| 2026-05-06 19:16 | 41.26839 | 28.71203 | 334 ft | 13 kts | 179° |
| 2026-05-06 19:16 | 41.26763 | 28.71204 | 333 ft | 9 kts | 179° |
| 2026-05-06 19:16 | 41.26728 | 28.71219 | 332 ft | 5 kts | 140° |
| 2026-05-06 19:16 | 41.26702 | 28.71257 | 329 ft | 6 kts | 121° |
| 2026-05-06 19:17 | 41.26692 | 28.71322 | 334 ft | 8 kts | 91° |
| 2026-05-06 19:17 | 41.26691 | 28.71408 | 334 ft | 10 kts | 91° |
| 2026-05-06 19:17 | 41.26690 | 28.71475 | 334 ft | 12 kts | 91° |
| 2026-05-06 19:17 | 41.26695 | 28.71638 | 334 ft | 15 kts | 82° |
| 2026-05-06 19:18 | 41.26700 | 28.71731 | 330 ft | 16 kts | 88° |
| 2026-05-06 19:18 | 41.26704 | 28.71888 | 334 ft | 18 kts | 88° |
| 2026-05-06 19:18 | 41.26706 | 28.72024 | 334 ft | 3 kts | 89° |
| 2026-05-06 19:18 | 41.26706 | 28.72060 | 334 ft | 5 kts | 89° |
| 2026-05-06 19:19 | 41.26707 | 28.72113 | 334 ft | 4 kts | 89° |
| 2026-05-06 19:19 | 41.26707 | 28.72122 | 334 ft | 2 kts | 89° |
| 2026-05-06 19:19 | 41.26707 | 28.72170 | 334 ft | 9 kts | 90° |
| 2026-05-06 19:19 | 41.26706 | 28.72272 | 334 ft | 13 kts | 90° |
| 2026-05-06 19:20 | 41.26704 | 28.72419 | 334 ft | 18 kts | 92° |
| 2026-05-06 19:20 | 41.26713 | 28.72603 | 333 ft | 22 kts | 87° |
| 2026-05-06 19:20 | 41.26718 | 28.72813 | 334 ft | 19 kts | 89° |
| 2026-05-06 19:20 | 41.26719 | 28.72902 | 334 ft | 6 kts | 89° |
| 2026-05-06 19:21 | 41.26720 | 28.72971 | 334 ft | 9 kts | 89° |
| 2026-05-06 19:21 | 41.26721 | 28.73059 | 334 ft | 7 kts | 89° |
| 2026-05-06 19:21 | 41.26721 | 28.73076 | 334 ft | 1 kts | 89° |
| 2026-05-06 19:21 | 41.26721 | 28.73086 | 334 ft | 1 kts | 89° |
| 2026-05-06 19:22 | 41.26721 | 28.73101 | 334 ft | 3 kts | 89° |
| 2026-05-06 19:22 | 41.26721 | 28.73134 | 334 ft | 5 kts | 90° |
| 2026-05-06 19:22 | 41.26721 | 28.73136 | 334 ft | 0 kts | 90° |
| 2026-05-06 19:24 | 41.26721 | 28.73142 | 331 ft | 0 kts | 90° |
| 2026-05-06 19:24 | 41.26721 | 28.73150 | 332 ft | 0 kts | 90° |
| 2026-05-06 19:25 | 41.26721 | 28.73167 | 334 ft | 4 kts | 90° |
| 2026-05-06 19:25 | 41.26721 | 28.73235 | 334 ft | 10 kts | 90° |
| 2026-05-06 19:25 | 41.26720 | 28.73310 | 334 ft | 0 kts | 90° |
| 2026-05-06 19:26 | 41.26713 | 28.73329 | 331 ft | 5 kts | 127° |
| 2026-05-06 19:26 | 41.26676 | 28.73340 | 333 ft | 8 kts | 178° |
| 2026-05-06 19:26 | 41.26634 | 28.73343 | 331 ft | 0 kts | 169° |
| 2026-05-06 19:26 | 41.26630 | 28.73345 | 331 ft | 0 kts | 167° |
| 2026-05-06 19:27 | 41.26624 | 28.73347 | 331 ft | 1 kts | 159° |
| 2026-05-06 19:27 | 41.26624 | 28.73349 | 331 ft | 0 kts | 146° |
| 2026-05-06 19:27 | 41.26624 | 28.73352 | 331 ft | 0 kts | 124° |
| 2026-05-06 19:27 | 41.26625 | 28.73361 | 331 ft | 3 kts | 93° |
| 2026-05-06 19:28 | 41.26630 | 28.73377 | 332 ft | 2 kts | 69° |
| 2026-05-06 19:28 | 41.26636 | 28.73400 | 333 ft | 4 kts | 70° |
| 2026-05-06 19:28 | 41.26645 | 28.73440 | 331 ft | 4 kts | 72° |
| 2026-05-06 19:28 | 41.26648 | 28.73449 | 332 ft | 0 kts | 72° |
| 2026-05-06 19:29 | 41.26648 | 28.73450 | 333 ft | 0 kts | 72° |